sensor_id;sensor_type;location;lat;lon;timestamp;temperature;humidity
16412;DHT22;8315;52.104;6.304;2022-10-03T00:00:01;10.00;98.40
16412;DHT22;8315;52.104;6.304;2022-10-03T00:02:43;10.00;98.40
16412;DHT22;8315;52.104;6.304;2022-10-03T00:05:22;10.00;98.40
16412;DHT22;8315;52.104;6.304;2022-10-03T00:08:07;10.00;98.40
16412;DHT22;8315;52.104;6.304;2022-10-03T00:10:37;10.00;98.40
16412;DHT22;8315;52.104;6.304;2022-10-03T00:13:17;10.00;98.40
16412;DHT22;8315;52.104;6.304;2022-10-03T00:15:48;10.00;98.40
16412;DHT22;8315;52.104;6.304;2022-10-03T00:18:23;10.00;98.40
16412;DHT22;8315;52.104;6.304;2022-10-03T00:21:01;10.00;98.40
16412;DHT22;8315;52.104;6.304;2022-10-03T00:23:35;9.90;98.40
16412;DHT22;8315;52.104;6.304;2022-10-03T00:26:08;9.80;98.40
16412;DHT22;8315;52.104;6.304;2022-10-03T00:28:56;9.80;98.40
16412;DHT22;8315;52.104;6.304;2022-10-03T00:31:34;9.70;98.40
16412;DHT22;8315;52.104;6.304;2022-10-03T00:34:08;9.60;98.40
16412;DHT22;8315;52.104;6.304;2022-10-03T00:36:45;9.60;98.40
16412;DHT22;8315;52.104;6.304;2022-10-03T00:39:19;9.70;98.40
16412;DHT22;8315;52.104;6.304;2022-10-03T00:42:11;9.70;98.40
16412;DHT22;8315;52.104;6.304;2022-10-03T00:48:25;9.60;98.40
16412;DHT22;8315;52.104;6.304;2022-10-03T00:51:07;9.60;98.40
16412;DHT22;8315;52.104;6.304;2022-10-03T00:53:54;9.60;98.40
16412;DHT22;8315;52.104;6.304;2022-10-03T00:59:26;9.50;98.40
16412;DHT22;8315;52.104;6.304;2022-10-03T01:02:09;9.50;98.40
16412;DHT22;8315;52.104;6.304;2022-10-03T01:04:52;9.40;98.40
16412;DHT22;8315;52.104;6.304;2022-10-03T01:07:28;9.40;98.40
16412;DHT22;8315;52.104;6.304;2022-10-03T01:10:13;9.50;98.40
16412;DHT22;8315;52.104;6.304;2022-10-03T01:12:47;9.50;98.40
16412;DHT22;8315;52.104;6.304;2022-10-03T01:15:24;9.50;98.40
16412;DHT22;8315;52.104;6.304;2022-10-03T01:18:01;9.50;98.40
16412;DHT22;8315;52.104;6.304;2022-10-03T01:20:36;9.40;98.40
16412;DHT22;8315;52.104;6.304;2022-10-03T01:23:30;9.40;98.40
16412;DHT22;8315;52.104;6.304;2022-10-03T01:26:25;9.40;98.40
16412;DHT22;8315;52.104;6.304;2022-10-03T01:29:08;9.30;98.40
16412;DHT22;8315;52.104;6.304;2022-10-03T01:31:55;9.30;98.40
16412;DHT22;8315;52.104;6.304;2022-10-03T01:34:26;9.40;98.40
16412;DHT22;8315;52.104;6.304;2022-10-03T01:37:02;9.40;98.40
16412;DHT22;8315;52.104;6.304;2022-10-03T01:39:33;9.40;98.40
16412;DHT22;8315;52.104;6.304;2022-10-03T01:42:07;9.30;98.40
16412;DHT22;8315;52.104;6.304;2022-10-03T01:44:40;9.30;98.40
16412;DHT22;8315;52.104;6.304;2022-10-03T01:47:23;9.30;98.40
16412;DHT22;8315;52.104;6.304;2022-10-03T01:49:53;9.20;98.40
16412;DHT22;8315;52.104;6.304;2022-10-03T01:52:24;9.20;98.40
16412;DHT22;8315;52.104;6.304;2022-10-03T01:54:58;9.20;98.40
16412;DHT22;8315;52.104;6.304;2022-10-03T01:57:32;9.20;98.40
16412;DHT22;8315;52.104;6.304;2022-10-03T02:00:04;9.10;98.40
16412;DHT22;8315;52.104;6.304;2022-10-03T02:02:39;9.10;98.40
16412;DHT22;8315;52.104;6.304;2022-10-03T02:05:10;9.10;98.40
16412;DHT22;8315;52.104;6.304;2022-10-03T02:07:42;9.10;98.40
16412;DHT22;8315;52.104;6.304;2022-10-03T02:10:18;9.20;98.40
16412;DHT22;8315;52.104;6.304;2022-10-03T02:12:50;9.10;98.40
16412;DHT22;8315;52.104;6.304;2022-10-03T02:15:25;9.20;98.40
16412;DHT22;8315;52.104;6.304;2022-10-03T02:17:55;9.10;98.40
16412;DHT22;8315;52.104;6.304;2022-10-03T02:20:25;9.00;98.40
16412;DHT22;8315;52.104;6.304;2022-10-03T02:22:56;9.00;98.40
16412;DHT22;8315;52.104;6.304;2022-10-03T02:25:25;9.00;98.40
16412;DHT22;8315;52.104;6.304;2022-10-03T02:36:59;9.00;98.40
16412;DHT22;8315;52.104;6.304;2022-10-03T02:44:00;8.90;98.40
16412;DHT22;8315;52.104;6.304;2022-10-03T02:50:41;8.90;98.40
16412;DHT22;8315;52.104;6.304;2022-10-03T02:53:35;8.90;98.40
16412;DHT22;8315;52.104;6.304;2022-10-03T03:00:05;8.80;98.40
16412;DHT22;8315;52.104;6.304;2022-10-03T03:03:18;8.80;98.40
16412;DHT22;8315;52.104;6.304;2022-10-03T03:23:14;8.80;98.40
16412;DHT22;8315;52.104;6.304;2022-10-03T03:26:19;8.80;98.40
16412;DHT22;8315;52.104;6.304;2022-10-03T03:29:34;8.60;98.40
16412;DHT22;8315;52.104;6.304;2022-10-03T03:32:41;8.60;98.40
16412;DHT22;8315;52.104;6.304;2022-10-03T03:35:57;8.60;98.40
16412;DHT22;8315;52.104;6.304;2022-10-03T03:38:49;8.70;98.40
16412;DHT22;8315;52.104;6.304;2022-10-03T03:42:19;8.70;98.40
16412;DHT22;8315;52.104;6.304;2022-10-03T03:45:41;8.60;98.40
16412;DHT22;8315;52.104;6.304;2022-10-03T03:48:56;8.60;98.40
16412;DHT22;8315;52.104;6.304;2022-10-03T03:52:20;8.60;98.40
16412;DHT22;8315;52.104;6.304;2022-10-03T04:01:29;8.40;98.40
16412;DHT22;8315;52.104;6.304;2022-10-03T04:04:37;8.50;98.40
16412;DHT22;8315;52.104;6.304;2022-10-03T04:10:32;8.40;98.40
16412;DHT22;8315;52.104;6.304;2022-10-03T04:17:04;8.30;98.40
16412;DHT22;8315;52.104;6.304;2022-10-03T04:24:06;8.40;98.40
16412;DHT22;8315;52.104;6.304;2022-10-03T04:27:35;8.30;98.40
16412;DHT22;8315;52.104;6.304;2022-10-03T04:31:03;8.20;98.40
16412;DHT22;8315;52.104;6.304;2022-10-03T04:33:59;8.20;98.40
16412;DHT22;8315;52.104;6.304;2022-10-03T04:43:28;8.10;98.40
16412;DHT22;8315;52.104;6.304;2022-10-03T04:47:00;8.10;98.40
16412;DHT22;8315;52.104;6.304;2022-10-03T04:49:59;8.10;98.40
16412;DHT22;8315;52.104;6.304;2022-10-03T04:53:10;8.10;98.40
16412;DHT22;8315;52.104;6.304;2022-10-03T04:56:22;8.00;98.40
16412;DHT22;8315;52.104;6.304;2022-10-03T05:02:15;8.00;98.40
16412;DHT22;8315;52.104;6.304;2022-10-03T05:08:39;8.10;98.40
16412;DHT22;8315;52.104;6.304;2022-10-03T05:11:36;8.00;98.40
16412;DHT22;8315;52.104;6.304;2022-10-03T05:14:18;7.90;98.40
16412;DHT22;8315;52.104;6.304;2022-10-03T05:16:59;7.90;98.40
16412;DHT22;8315;52.104;6.304;2022-10-03T05:19:40;7.90;98.40
16412;DHT22;8315;52.104;6.304;2022-10-03T05:25:25;7.90;98.40
16412;DHT22;8315;52.104;6.304;2022-10-03T05:28:29;8.00;98.40
16412;DHT22;8315;52.104;6.304;2022-10-03T05:31:14;8.10;98.40
16412;DHT22;8315;52.104;6.304;2022-10-03T05:34:03;8.10;98.40
16412;DHT22;8315;52.104;6.304;2022-10-03T05:36:49;8.00;98.40
16412;DHT22;8315;52.104;6.304;2022-10-03T05:39:43;7.90;98.40
16412;DHT22;8315;52.104;6.304;2022-10-03T05:42:35;7.80;98.40
16412;DHT22;8315;52.104;6.304;2022-10-03T05:45:21;7.90;98.40
16412;DHT22;8315;52.104;6.304;2022-10-03T05:54:14;7.70;98.40
16412;DHT22;8315;52.104;6.304;2022-10-03T05:57:08;7.60;98.40
16412;DHT22;8315;52.104;6.304;2022-10-03T06:00:09;7.60;98.40
16412;DHT22;8315;52.104;6.304;2022-10-03T06:05:42;7.80;98.40
16412;DHT22;8315;52.104;6.304;2022-10-03T06:11:13;7.70;98.40
16412;DHT22;8315;52.104;6.304;2022-10-03T06:14:12;7.70;98.40
16412;DHT22;8315;52.104;6.304;2022-10-03T06:16:51;7.80;98.40
16412;DHT22;8315;52.104;6.304;2022-10-03T06:19:30;7.90;98.40
16412;DHT22;8315;52.104;6.304;2022-10-03T06:28:07;7.90;98.40
16412;DHT22;8315;52.104;6.304;2022-10-03T06:31:12;7.90;98.40
16412;DHT22;8315;52.104;6.304;2022-10-03T06:34:01;8.00;98.40
16412;DHT22;8315;52.104;6.304;2022-10-03T06:36:51;8.10;98.40
16412;DHT22;8315;52.104;6.304;2022-10-03T06:39:32;8.10;98.40
16412;DHT22;8315;52.104;6.304;2022-10-03T06:42:55;8.30;98.40
16412;DHT22;8315;52.104;6.304;2022-10-03T06:45:48;8.40;98.40
16412;DHT22;8315;52.104;6.304;2022-10-03T06:48:33;8.40;98.40
16412;DHT22;8315;52.104;6.304;2022-10-03T06:51:15;8.50;98.40
16412;DHT22;8315;52.104;6.304;2022-10-03T06:54:09;8.70;98.40
16412;DHT22;8315;52.104;6.304;2022-10-03T06:56:49;8.80;98.40
16412;DHT22;8315;52.104;6.304;2022-10-03T06:59:35;8.90;98.40
16412;DHT22;8315;52.104;6.304;2022-10-03T07:02:17;9.00;98.40
16412;DHT22;8315;52.104;6.304;2022-10-03T07:05:22;9.10;98.40
16412;DHT22;8315;52.104;6.304;2022-10-03T07:11:11;9.40;98.40
16412;DHT22;8315;52.104;6.304;2022-10-03T07:13:59;9.50;98.40
16412;DHT22;8315;52.104;6.304;2022-10-03T07:17:07;9.60;98.40
16412;DHT22;8315;52.104;6.304;2022-10-03T07:22:43;9.80;98.40
16412;DHT22;8315;52.104;6.304;2022-10-03T07:25:34;9.90;98.40
16412;DHT22;8315;52.104;6.304;2022-10-03T07:28:17;10.00;98.40
16412;DHT22;8315;52.104;6.304;2022-10-03T07:31:13;10.10;98.40
16412;DHT22;8315;52.104;6.304;2022-10-03T07:36:45;10.20;98.40
16412;DHT22;8315;52.104;6.304;2022-10-03T07:42:35;10.50;98.40
16412;DHT22;8315;52.104;6.304;2022-10-03T07:45:38;10.60;98.40
16412;DHT22;8315;52.104;6.304;2022-10-03T07:48:26;10.70;98.40
16412;DHT22;8315;52.104;6.304;2022-10-03T07:51:29;10.80;98.40
16412;DHT22;8315;52.104;6.304;2022-10-03T07:54:17;10.90;98.40
16412;DHT22;8315;52.104;6.304;2022-10-03T07:56:56;11.00;98.40
16412;DHT22;8315;52.104;6.304;2022-10-03T07:59:34;11.10;98.40
16412;DHT22;8315;52.104;6.304;2022-10-03T08:02:38;11.30;98.40
16412;DHT22;8315;52.104;6.304;2022-10-03T08:05:18;11.40;98.40
16412;DHT22;8315;52.104;6.304;2022-10-03T08:07:59;11.50;98.40
16412;DHT22;8315;52.104;6.304;2022-10-03T08:10:49;11.60;98.40
16412;DHT22;8315;52.104;6.304;2022-10-03T08:13:34;11.80;98.40
16412;DHT22;8315;52.104;6.304;2022-10-03T08:16:18;11.90;98.40
16412;DHT22;8315;52.104;6.304;2022-10-03T08:19:02;12.10;98.40
16412;DHT22;8315;52.104;6.304;2022-10-03T08:21:37;12.30;98.40
16412;DHT22;8315;52.104;6.304;2022-10-03T08:24:19;12.50;98.40
16412;DHT22;8315;52.104;6.304;2022-10-03T08:27:11;12.60;98.40
16412;DHT22;8315;52.104;6.304;2022-10-03T08:30:07;12.80;98.40
16412;DHT22;8315;52.104;6.304;2022-10-03T08:32:50;13.00;98.40
16412;DHT22;8315;52.104;6.304;2022-10-03T08:44:39;14.10;98.40
16412;DHT22;8315;52.104;6.304;2022-10-03T08:50:34;14.30;98.40
16412;DHT22;8315;52.104;6.304;2022-10-03T08:53:21;14.30;98.40
16412;DHT22;8315;52.104;6.304;2022-10-03T08:56:15;14.20;98.40
16412;DHT22;8315;52.104;6.304;2022-10-03T08:59:01;14.20;98.40
16412;DHT22;8315;52.104;6.304;2022-10-03T09:04:53;14.10;98.40
16412;DHT22;8315;52.104;6.304;2022-10-03T09:10:43;14.20;98.40
16412;DHT22;8315;52.104;6.304;2022-10-03T09:13:26;14.30;98.40
16412;DHT22;8315;52.104;6.304;2022-10-03T09:22:07;14.40;98.40
16412;DHT22;8315;52.104;6.304;2022-10-03T09:30:55;14.60;98.40
16412;DHT22;8315;52.104;6.304;2022-10-03T09:36:33;14.70;98.40
16412;DHT22;8315;52.104;6.304;2022-10-03T09:39:30;14.80;98.40
16412;DHT22;8315;52.104;6.304;2022-10-03T09:42:29;14.80;98.40
16412;DHT22;8315;52.104;6.304;2022-10-03T09:45:31;14.90;98.40
16412;DHT22;8315;52.104;6.304;2022-10-03T09:48:16;14.90;98.40
16412;DHT22;8315;52.104;6.304;2022-10-03T09:51:05;15.00;98.40
16412;DHT22;8315;52.104;6.304;2022-10-03T09:53:50;15.10;98.40
16412;DHT22;8315;52.104;6.304;2022-10-03T09:56:47;15.20;98.40
16412;DHT22;8315;52.104;6.304;2022-10-03T09:59:34;15.20;98.40
16412;DHT22;8315;52.104;6.304;2022-10-03T10:02:14;15.20;98.40
16412;DHT22;8315;52.104;6.304;2022-10-03T10:05:02;15.30;98.40
16412;DHT22;8315;52.104;6.304;2022-10-03T10:16:44;15.60;98.40
16412;DHT22;8315;52.104;6.304;2022-10-03T10:19:45;15.60;98.40
16412;DHT22;8315;52.104;6.304;2022-10-03T10:22:22;15.60;98.40
16412;DHT22;8315;52.104;6.304;2022-10-03T10:25:19;15.60;98.40
16412;DHT22;8315;52.104;6.304;2022-10-03T10:28:17;15.70;98.40
16412;DHT22;8315;52.104;6.304;2022-10-03T10:31:13;15.70;98.40
16412;DHT22;8315;52.104;6.304;2022-10-03T10:34:14;15.90;98.40
16412;DHT22;8315;52.104;6.304;2022-10-03T10:37:04;16.00;98.40
16412;DHT22;8315;52.104;6.304;2022-10-03T10:43:00;16.00;98.40
16412;DHT22;8315;52.104;6.304;2022-10-03T10:45:48;16.10;98.40
16412;DHT22;8315;52.104;6.304;2022-10-03T10:48:45;16.20;98.40
16412;DHT22;8315;52.104;6.304;2022-10-03T10:51:51;16.20;98.40
16412;DHT22;8315;52.104;6.304;2022-10-03T10:57:51;16.30;98.40
16412;DHT22;8315;52.104;6.304;2022-10-03T11:03:48;16.50;98.40
16412;DHT22;8315;52.104;6.304;2022-10-03T11:06:42;16.40;98.40
16412;DHT22;8315;52.104;6.304;2022-10-03T11:09:30;16.50;98.40
16412;DHT22;8315;52.104;6.304;2022-10-03T11:12:30;16.50;98.40
16412;DHT22;8315;52.104;6.304;2022-10-03T11:18:59;16.60;98.40
16412;DHT22;8315;52.104;6.304;2022-10-03T11:28:04;16.70;98.40
16412;DHT22;8315;52.104;6.304;2022-10-03T11:39:46;16.70;98.40
16412;DHT22;8315;52.104;6.304;2022-10-03T11:42:20;16.70;98.40
16412;DHT22;8315;52.104;6.304;2022-10-03T11:44:54;16.70;98.40
16412;DHT22;8315;52.104;6.304;2022-10-03T11:50:28;16.90;98.40
16412;DHT22;8315;52.104;6.304;2022-10-03T11:53:09;17.00;98.40
16412;DHT22;8315;52.104;6.304;2022-10-03T11:55:40;17.10;98.40
16412;DHT22;8315;52.104;6.304;2022-10-03T11:58:13;17.10;98.40
16412;DHT22;8315;52.104;6.304;2022-10-03T12:00:51;17.10;98.40
16412;DHT22;8315;52.104;6.304;2022-10-03T12:03:24;17.10;98.40
16412;DHT22;8315;52.104;6.304;2022-10-03T12:05:55;17.10;98.40
16412;DHT22;8315;52.104;6.304;2022-10-03T12:08:39;17.10;98.40
16412;DHT22;8315;52.104;6.304;2022-10-03T12:11:23;17.00;98.40
16412;DHT22;8315;52.104;6.304;2022-10-03T12:14:00;17.00;98.40
16412;DHT22;8315;52.104;6.304;2022-10-03T12:16:36;17.00;98.40
16412;DHT22;8315;52.104;6.304;2022-10-03T12:19:17;17.00;98.40
16412;DHT22;8315;52.104;6.304;2022-10-03T12:21:56;16.90;98.40
16412;DHT22;8315;52.104;6.304;2022-10-03T12:24:25;16.90;98.40
16412;DHT22;8315;52.104;6.304;2022-10-03T12:26:54;16.90;98.40
16412;DHT22;8315;52.104;6.304;2022-10-03T12:29:29;16.90;98.40
16412;DHT22;8315;52.104;6.304;2022-10-03T12:32:00;16.90;98.40
16412;DHT22;8315;52.104;6.304;2022-10-03T12:34:34;16.90;98.40
16412;DHT22;8315;52.104;6.304;2022-10-03T12:37:09;16.90;98.40
16412;DHT22;8315;52.104;6.304;2022-10-03T12:39:53;17.00;98.40
16412;DHT22;8315;52.104;6.304;2022-10-03T12:42:27;17.00;98.40
16412;DHT22;8315;52.104;6.304;2022-10-03T12:44:56;17.00;98.40
16412;DHT22;8315;52.104;6.304;2022-10-03T12:50:17;17.10;98.40
16412;DHT22;8315;52.104;6.304;2022-10-03T12:52:55;17.10;98.40
16412;DHT22;8315;52.104;6.304;2022-10-03T12:55:37;17.20;98.40
16412;DHT22;8315;52.104;6.304;2022-10-03T12:58:07;17.20;98.40
16412;DHT22;8315;52.104;6.304;2022-10-03T13:00:43;17.20;98.40
16412;DHT22;8315;52.104;6.304;2022-10-03T13:03:16;17.10;98.40
16412;DHT22;8315;52.104;6.304;2022-10-03T13:05:49;17.10;98.40
16412;DHT22;8315;52.104;6.304;2022-10-03T13:08:28;17.10;98.40
16412;DHT22;8315;52.104;6.304;2022-10-03T13:11:08;17.10;98.40
16412;DHT22;8315;52.104;6.304;2022-10-03T13:13:47;17.10;98.40
16412;DHT22;8315;52.104;6.304;2022-10-03T13:16:23;17.10;98.40
16412;DHT22;8315;52.104;6.304;2022-10-03T13:18:55;17.20;98.40
16412;DHT22;8315;52.104;6.304;2022-10-03T13:21:27;17.20;98.40
16412;DHT22;8315;52.104;6.304;2022-10-03T13:24:07;17.20;98.40
16412;DHT22;8315;52.104;6.304;2022-10-03T13:26:44;17.20;98.40
16412;DHT22;8315;52.104;6.304;2022-10-03T13:29:23;17.10;98.40
16412;DHT22;8315;52.104;6.304;2022-10-03T13:34:53;17.10;98.40
16412;DHT22;8315;52.104;6.304;2022-10-03T13:37:24;17.20;98.40
16412;DHT22;8315;52.104;6.304;2022-10-03T13:39:56;17.20;98.40
16412;DHT22;8315;52.104;6.304;2022-10-03T13:42:30;17.20;98.40
16412;DHT22;8315;52.104;6.304;2022-10-03T13:45:02;17.10;98.40
16412;DHT22;8315;52.104;6.304;2022-10-03T13:47:40;17.20;98.40
16412;DHT22;8315;52.104;6.304;2022-10-03T13:50:12;17.20;98.40
16412;DHT22;8315;52.104;6.304;2022-10-03T13:52:42;17.20;98.40
16412;DHT22;8315;52.104;6.304;2022-10-03T13:55:16;17.20;98.40
16412;DHT22;8315;52.104;6.304;2022-10-03T13:57:51;17.20;98.40
16412;DHT22;8315;52.104;6.304;2022-10-03T14:00:23;17.10;98.40
16412;DHT22;8315;52.104;6.304;2022-10-03T14:02:57;17.20;98.40
16412;DHT22;8315;52.104;6.304;2022-10-03T14:05:35;17.10;98.40
16412;DHT22;8315;52.104;6.304;2022-10-03T14:08:11;17.10;98.40
16412;DHT22;8315;52.104;6.304;2022-10-03T14:10:48;17.10;98.40
16412;DHT22;8315;52.104;6.304;2022-10-03T14:13:35;17.10;98.40
16412;DHT22;8315;52.104;6.304;2022-10-03T14:16:09;17.10;98.40
16412;DHT22;8315;52.104;6.304;2022-10-03T14:18:42;17.10;98.40
16412;DHT22;8315;52.104;6.304;2022-10-03T14:21:32;17.10;98.40
16412;DHT22;8315;52.104;6.304;2022-10-03T14:24:13;17.10;98.40
16412;DHT22;8315;52.104;6.304;2022-10-03T14:26:45;17.10;98.40
16412;DHT22;8315;52.104;6.304;2022-10-03T14:29:19;17.20;98.40
16412;DHT22;8315;52.104;6.304;2022-10-03T14:31:52;17.10;98.40
16412;DHT22;8315;52.104;6.304;2022-10-03T14:34:23;17.10;98.40
16412;DHT22;8315;52.104;6.304;2022-10-03T14:37:00;17.10;98.40
16412;DHT22;8315;52.104;6.304;2022-10-03T14:39:34;17.10;98.40
16412;DHT22;8315;52.104;6.304;2022-10-03T14:42:10;17.00;98.40
16412;DHT22;8315;52.104;6.304;2022-10-03T14:44:57;17.00;98.40
16412;DHT22;8315;52.104;6.304;2022-10-03T14:47:25;17.00;98.40
16412;DHT22;8315;52.104;6.304;2022-10-03T14:49:59;17.00;98.40
16412;DHT22;8315;52.104;6.304;2022-10-03T14:52:27;16.90;98.40
16412;DHT22;8315;52.104;6.304;2022-10-03T14:55:02;17.00;98.40
16412;DHT22;8315;52.104;6.304;2022-10-03T14:57:34;16.90;98.40
16412;DHT22;8315;52.104;6.304;2022-10-03T15:00:03;16.90;98.40
16412;DHT22;8315;52.104;6.304;2022-10-03T15:02:32;17.00;98.40
16412;DHT22;8315;52.104;6.304;2022-10-03T15:05:02;17.00;98.40
16412;DHT22;8315;52.104;6.304;2022-10-03T15:07:34;17.00;98.40
16412;DHT22;8315;52.104;6.304;2022-10-03T15:10:04;16.90;98.40
16412;DHT22;8315;52.104;6.304;2022-10-03T15:12:33;16.90;98.40
16412;DHT22;8315;52.104;6.304;2022-10-03T15:15:05;16.90;98.40
16412;DHT22;8315;52.104;6.304;2022-10-03T15:17:36;16.90;98.40
16412;DHT22;8315;52.104;6.304;2022-10-03T15:20:09;16.90;98.40
16412;DHT22;8315;52.104;6.304;2022-10-03T15:22:38;17.00;98.40
16412;DHT22;8315;52.104;6.304;2022-10-03T15:25:07;17.00;98.40
16412;DHT22;8315;52.104;6.304;2022-10-03T15:27:39;17.00;98.40
16412;DHT22;8315;52.104;6.304;2022-10-03T15:30:16;17.00;98.40
16412;DHT22;8315;52.104;6.304;2022-10-03T15:32:46;17.00;98.40
16412;DHT22;8315;52.104;6.304;2022-10-03T15:35:15;17.00;98.40
16412;DHT22;8315;52.104;6.304;2022-10-03T15:37:42;17.00;98.40
16412;DHT22;8315;52.104;6.304;2022-10-03T15:40:18;17.00;98.40
16412;DHT22;8315;52.104;6.304;2022-10-03T15:42:48;16.90;98.40
16412;DHT22;8315;52.104;6.304;2022-10-03T15:45:18;16.90;98.40
16412;DHT22;8315;52.104;6.304;2022-10-03T15:47:49;16.90;98.40
16412;DHT22;8315;52.104;6.304;2022-10-03T15:50:17;16.90;98.40
16412;DHT22;8315;52.104;6.304;2022-10-03T15:52:46;16.90;98.40
16412;DHT22;8315;52.104;6.304;2022-10-03T15:55:17;17.00;98.40
16412;DHT22;8315;52.104;6.304;2022-10-03T15:57:47;17.00;98.40
16412;DHT22;8315;52.104;6.304;2022-10-03T16:00:20;17.00;98.40
16412;DHT22;8315;52.104;6.304;2022-10-03T16:02:53;17.00;98.40
16412;DHT22;8315;52.104;6.304;2022-10-03T16:05:24;17.00;98.40
16412;DHT22;8315;52.104;6.304;2022-10-03T16:07:54;17.00;98.40
16412;DHT22;8315;52.104;6.304;2022-10-03T16:10:24;17.00;98.40
16412;DHT22;8315;52.104;6.304;2022-10-03T16:12:55;17.00;98.40
16412;DHT22;8315;52.104;6.304;2022-10-03T16:15:27;17.00;98.40
16412;DHT22;8315;52.104;6.304;2022-10-03T16:18:03;17.00;98.40
16412;DHT22;8315;52.104;6.304;2022-10-03T16:20:33;16.90;98.40
16412;DHT22;8315;52.104;6.304;2022-10-03T16:23:03;16.90;98.40
16412;DHT22;8315;52.104;6.304;2022-10-03T16:25:38;16.90;98.40
16412;DHT22;8315;52.104;6.304;2022-10-03T16:28:10;16.90;98.40
16412;DHT22;8315;52.104;6.304;2022-10-03T16:30:41;16.90;98.40
16412;DHT22;8315;52.104;6.304;2022-10-03T16:33:14;16.80;98.40
16412;DHT22;8315;52.104;6.304;2022-10-03T16:35:43;16.80;98.40
16412;DHT22;8315;52.104;6.304;2022-10-03T16:38:15;16.70;98.40
16412;DHT22;8315;52.104;6.304;2022-10-03T16:40:49;16.70;98.40
16412;DHT22;8315;52.104;6.304;2022-10-03T16:43:18;16.60;98.40
16412;DHT22;8315;52.104;6.304;2022-10-03T16:45:46;16.50;98.40
16412;DHT22;8315;52.104;6.304;2022-10-03T16:48:16;16.50;98.40
16412;DHT22;8315;52.104;6.304;2022-10-03T16:51:03;16.50;98.40
16412;DHT22;8315;52.104;6.304;2022-10-03T16:53:32;16.30;98.40
16412;DHT22;8315;52.104;6.304;2022-10-03T16:56:02;16.30;98.40
16412;DHT22;8315;52.104;6.304;2022-10-03T16:58:31;16.30;98.40
16412;DHT22;8315;52.104;6.304;2022-10-03T17:01:02;16.20;98.40
16412;DHT22;8315;52.104;6.304;2022-10-03T17:03:34;16.20;98.40
16412;DHT22;8315;52.104;6.304;2022-10-03T17:06:03;16.00;98.40
16412;DHT22;8315;52.104;6.304;2022-10-03T17:08:34;15.90;98.40
16412;DHT22;8315;52.104;6.304;2022-10-03T17:11:07;16.00;98.40
16412;DHT22;8315;52.104;6.304;2022-10-03T17:13:38;16.00;98.40
16412;DHT22;8315;52.104;6.304;2022-10-03T17:16:11;15.90;98.40
16412;DHT22;8315;52.104;6.304;2022-10-03T17:18:40;15.70;98.40
16412;DHT22;8315;52.104;6.304;2022-10-03T17:21:14;15.60;98.40
16412;DHT22;8315;52.104;6.304;2022-10-03T17:23:45;15.60;98.40
16412;DHT22;8315;52.104;6.304;2022-10-03T17:26:16;15.70;98.40
16412;DHT22;8315;52.104;6.304;2022-10-03T17:28:47;15.70;98.40
16412;DHT22;8315;52.104;6.304;2022-10-03T17:31:26;15.80;98.40
16412;DHT22;8315;52.104;6.304;2022-10-03T17:33:58;15.60;98.40
16412;DHT22;8315;52.104;6.304;2022-10-03T17:36:34;15.40;98.40
16412;DHT22;8315;52.104;6.304;2022-10-03T17:39:07;15.20;98.40
16412;DHT22;8315;52.104;6.304;2022-10-03T17:41:41;15.30;98.40
16412;DHT22;8315;52.104;6.304;2022-10-03T17:44:14;15.30;98.40
16412;DHT22;8315;52.104;6.304;2022-10-03T17:46:49;15.20;98.40
16412;DHT22;8315;52.104;6.304;2022-10-03T17:49:22;15.20;98.40
16412;DHT22;8315;52.104;6.304;2022-10-03T17:51:56;15.00;98.40
16412;DHT22;8315;52.104;6.304;2022-10-03T17:54:24;15.00;98.40
16412;DHT22;8315;52.104;6.304;2022-10-03T17:56:57;15.10;98.40
16412;DHT22;8315;52.104;6.304;2022-10-03T17:59:29;15.00;98.40
16412;DHT22;8315;52.104;6.304;2022-10-03T18:01:59;15.00;98.40
16412;DHT22;8315;52.104;6.304;2022-10-03T18:04:34;14.90;98.40
16412;DHT22;8315;52.104;6.304;2022-10-03T18:07:04;14.90;98.40
16412;DHT22;8315;52.104;6.304;2022-10-03T18:09:33;14.90;98.40
16412;DHT22;8315;52.104;6.304;2022-10-03T18:12:08;14.80;98.40
16412;DHT22;8315;52.104;6.304;2022-10-03T18:14:44;14.70;98.40
16412;DHT22;8315;52.104;6.304;2022-10-03T18:17:20;14.60;98.40
16412;DHT22;8315;52.104;6.304;2022-10-03T18:19:54;14.60;98.40
16412;DHT22;8315;52.104;6.304;2022-10-03T18:22:29;14.60;98.40
16412;DHT22;8315;52.104;6.304;2022-10-03T18:24:58;14.60;98.40
16412;DHT22;8315;52.104;6.304;2022-10-03T18:27:55;14.50;98.40
16412;DHT22;8315;52.104;6.304;2022-10-03T18:30:33;14.50;98.40
16412;DHT22;8315;52.104;6.304;2022-10-03T18:33:04;14.40;98.40
16412;DHT22;8315;52.104;6.304;2022-10-03T18:35:33;14.40;98.40
16412;DHT22;8315;52.104;6.304;2022-10-03T18:38:02;14.40;98.40
16412;DHT22;8315;52.104;6.304;2022-10-03T18:40:32;14.20;98.40
16412;DHT22;8315;52.104;6.304;2022-10-03T18:43:00;14.10;98.40
16412;DHT22;8315;52.104;6.304;2022-10-03T18:45:30;14.10;98.40
16412;DHT22;8315;52.104;6.304;2022-10-03T18:48:02;14.10;98.40
16412;DHT22;8315;52.104;6.304;2022-10-03T18:50:39;14.10;98.40
16412;DHT22;8315;52.104;6.304;2022-10-03T18:53:15;14.10;98.40
16412;DHT22;8315;52.104;6.304;2022-10-03T18:55:45;14.20;98.40
16412;DHT22;8315;52.104;6.304;2022-10-03T18:58:15;14.10;98.40
16412;DHT22;8315;52.104;6.304;2022-10-03T19:00:45;14.00;98.40
16412;DHT22;8315;52.104;6.304;2022-10-03T19:03:16;13.90;98.40
16412;DHT22;8315;52.104;6.304;2022-10-03T19:05:44;13.80;98.40
16412;DHT22;8315;52.104;6.304;2022-10-03T19:08:15;13.90;98.40
16412;DHT22;8315;52.104;6.304;2022-10-03T19:10:46;13.80;98.40
16412;DHT22;8315;52.104;6.304;2022-10-03T19:13:16;13.80;98.40
16412;DHT22;8315;52.104;6.304;2022-10-03T19:15:50;13.70;98.40
16412;DHT22;8315;52.104;6.304;2022-10-03T19:18:41;13.70;98.40
16412;DHT22;8315;52.104;6.304;2022-10-03T19:21:10;13.60;98.40
16412;DHT22;8315;52.104;6.304;2022-10-03T19:23:44;13.60;98.40
16412;DHT22;8315;52.104;6.304;2022-10-03T19:26:17;13.60;98.40
16412;DHT22;8315;52.104;6.304;2022-10-03T19:28:48;13.50;98.40
16412;DHT22;8315;52.104;6.304;2022-10-03T19:31:16;13.40;98.40
16412;DHT22;8315;52.104;6.304;2022-10-03T19:33:47;13.40;98.40
16412;DHT22;8315;52.104;6.304;2022-10-03T19:36:16;13.40;98.40
16412;DHT22;8315;52.104;6.304;2022-10-03T19:38:45;13.40;98.40
16412;DHT22;8315;52.104;6.304;2022-10-03T19:41:15;13.30;98.40
16412;DHT22;8315;52.104;6.304;2022-10-03T19:43:48;13.20;98.40
16412;DHT22;8315;52.104;6.304;2022-10-03T19:46:27;13.30;98.40
16412;DHT22;8315;52.104;6.304;2022-10-03T19:49:20;13.20;98.40
16412;DHT22;8315;52.104;6.304;2022-10-03T19:51:50;13.20;98.40
16412;DHT22;8315;52.104;6.304;2022-10-03T19:54:27;13.20;98.40
16412;DHT22;8315;52.104;6.304;2022-10-03T19:56:56;13.10;98.40
16412;DHT22;8315;52.104;6.304;2022-10-03T19:59:35;13.10;98.40
16412;DHT22;8315;52.104;6.304;2022-10-03T20:02:03;13.10;98.40
16412;DHT22;8315;52.104;6.304;2022-10-03T20:04:32;13.20;98.40
16412;DHT22;8315;52.104;6.304;2022-10-03T20:07:00;13.10;98.40
16412;DHT22;8315;52.104;6.304;2022-10-03T20:09:28;13.10;98.40
16412;DHT22;8315;52.104;6.304;2022-10-03T20:11:57;13.00;98.40
16412;DHT22;8315;52.104;6.304;2022-10-03T20:14:29;12.90;98.40
16412;DHT22;8315;52.104;6.304;2022-10-03T20:16:59;12.80;98.40
16412;DHT22;8315;52.104;6.304;2022-10-03T20:19:27;12.90;98.40